หน้าหลัก
METAR-TAF:

METAR-TAF

ท่าอากาศยาน :

La Paz, เม็กซิโก

ละติจูด: 24-04N, ลองจิจูด: 110-22W, ความสูง: 21 ม.

การสังเกตสภาพอากาศปัจจุบัน

รายงานได้ทำขึ้นเมื่อ 28 นาทีที่แล้ว ณ เวลา 13:43 UTC
ลม 15 นอตจากใต้
อุณหภูมิ 16°C
ความชื้น 82%
ความกดอากาศ 1008 hPa
ทัศนวิสัย: 16.1 กม.
ท้องฟ้าแจ่มใส

METAR: MMLP 181343Z 18015KT 10SM SKC 16/13 A2977 RMK HZY

เวลา: 08:11 (14:11 UTC)

การพยากรณ์

รายงานได้ทำขึ้นเมื่อ 9 ชั่วโมงและ 10 นาทีที่แล้ว ณ เวลา 05:01 UTC
การพยากรณ์มีผลตั้งแต่วันที่ 18 ณ เวลา 06 UTC จนถึงวันที่ 19 ณ เวลา 06 UTC
ลม 10 นอตจากใต้/ตะวันตกเฉียงใต้
ทัศนวิสัย: 10 กม.
ท้องฟ้าแจ่มใส
ชั่วคราว
ตั้งแต่วันที่ 18 ณ เวลา 10 UTC จนถึงวันที่ 18 ณ เวลา 14 UTC
ทัศนวิสัย: 8.0 กม.
มีเมฆกระจายเป็นบางส่วนที่ความสูง 3000 ฟุต
หมอกในบริเวณใกล้เคียง
จาก 18 ณ เวลา 1500 UTC
ลม 15 นอตจากใต้/ตะวันตกเฉียงใต้
ทัศนวิสัย: 10 กม.
ท้องฟ้าแจ่มใส
จาก 19 ณ เวลา 0400 UTC
ลม 10 นอตจากใต้/ตะวันตกเฉียงใต้
ทัศนวิสัย: 10 กม.
ท้องฟ้าแจ่มใส

TAF: MMLP 180501Z 1806/1906 20010KT P6SM SKC TEMPO 1810/1814 5SM VCFG SCT030 FM181500 20015KT P6SM SKC FM190400 20010KT P6SM SKC

สังเกตการณ์สภาพอากาศและพยากรณ์อากาศของสนามบินมากกว่า 4000 แห่ง (รายงาน METAR และ TAF).

สถานีที่ดูได้จะแสดงไว้ด้วยจุดสีเหลืองและสีแดงบนแผนที่.

เลื่อนเมาส์ไปเหนือจุดเพื่อดูชื่อสถานี.

แล้วคลิกเพื่อดูสังเกตการณ์และการพยากรณ์สภาพอากาศ.

ในการเปลี่ยนแผนที่: คลิกที่ปุ่มสีเขียวที่มีกากบาทสีดำเพื่อซูมเข้า; ที่ปุ่มสีเขียวที่มีขีดเพื่อซูมออก; หรือที่ลูกศรสีเขียวเพื่อไปยังแผนที่ที่อยู่ติดกัน.


METAR-TAF: